sensor_id;sensor_type;location;lat;lon;timestamp;pressure;altitude;pressure_sealevel;temperature;humidity
56400;BME280;42298;53.638;9.876;2022-11-15T00:00:20;100903.44;;;9.87;71.60
56400;BME280;42298;53.638;9.876;2022-11-15T00:02:45;100893.88;;;9.84;72.47
56400;BME280;42298;53.638;9.876;2022-11-15T00:05:10;100891.66;;;9.86;72.19
56400;BME280;42298;53.638;9.876;2022-11-15T00:07:36;100907.16;;;9.96;72.15
56400;BME280;42298;53.638;9.876;2022-11-15T00:10:01;100904.28;;;9.87;71.68
56400;BME280;42298;53.638;9.876;2022-11-15T00:12:28;100900.91;;;9.90;72.22
56400;BME280;42298;53.638;9.876;2022-11-15T00:14:53;100908.78;;;9.97;72.20
56400;BME280;42298;53.638;9.876;2022-11-15T00:17:19;100897.16;;;9.86;72.06
56400;BME280;42298;53.638;9.876;2022-11-15T00:19:44;100877.31;;;9.70;71.96
56400;BME280;42298;53.638;9.876;2022-11-15T00:22:10;100888.56;;;9.74;72.36
56400;BME280;42298;53.638;9.876;2022-11-15T00:24:35;100880.59;;;9.73;72.63
56400;BME280;42298;53.638;9.876;2022-11-15T00:27:00;100878.66;;;9.73;72.04
56400;BME280;42298;53.638;9.876;2022-11-15T00:29:25;100877.63;;;9.69;72.04
56400;BME280;42298;53.638;9.876;2022-11-15T00:31:51;100900.41;;;9.88;72.31
56400;BME280;42298;53.638;9.876;2022-11-15T00:34:17;100906.53;;;9.99;71.71
56400;BME280;42298;53.638;9.876;2022-11-15T00:36:42;100887.78;;;9.87;71.63
56400;BME280;42298;53.638;9.876;2022-11-15T00:39:07;100902.84;;;10.08;72.04
56400;BME280;42298;53.638;9.876;2022-11-15T00:41:33;100866.47;;;9.93;71.75
56400;BME280;42298;53.638;9.876;2022-11-15T00:43:58;100875.38;;;10.03;71.80
56400;BME280;42298;53.638;9.876;2022-11-15T00:46:23;100891.34;;;10.20;71.17
56400;BME280;42298;53.638;9.876;2022-11-15T00:48:48;100885.81;;;10.20;71.88
56400;BME280;42298;53.638;9.876;2022-11-15T00:51:14;100899.91;;;10.32;71.25
56400;BME280;42298;53.638;9.876;2022-11-15T00:53:39;100877.56;;;10.20;71.14
56400;BME280;42298;53.638;9.876;2022-11-15T00:56:04;100883.19;;;10.28;71.33
56400;BME280;42298;53.638;9.876;2022-11-15T00:58:30;100885.84;;;10.33;71.39
56400;BME280;42298;53.638;9.876;2022-11-15T01:00:55;100875.75;;;10.29;70.87
56400;BME280;42298;53.638;9.876;2022-11-15T01:03:21;100881.56;;;10.41;70.84
56400;BME280;42298;53.638;9.876;2022-11-15T01:05:46;100898.91;;;10.55;70.44
56400;BME280;42298;53.638;9.876;2022-11-15T01:08:13;100907.38;;;10.58;70.68
56400;BME280;42298;53.638;9.876;2022-11-15T01:10:39;100883.63;;;10.49;70.76
56400;BME280;42298;53.638;9.876;2022-11-15T01:13:04;100901.97;;;10.67;70.57
56400;BME280;42298;53.638;9.876;2022-11-15T01:15:29;100887.16;;;10.63;70.49
56400;BME280;42298;53.638;9.876;2022-11-15T01:17:54;100877.50;;;10.65;70.25
56400;BME280;42298;53.638;9.876;2022-11-15T01:20:20;100880.13;;;10.70;69.97
56400;BME280;42298;53.638;9.876;2022-11-15T01:22:45;100860.16;;;10.51;69.48
56400;BME280;42298;53.638;9.876;2022-11-15T01:25:10;100849.16;;;10.38;69.74
56400;BME280;42298;53.638;9.876;2022-11-15T01:27:36;100876.47;;;10.48;70.18
56400;BME280;42298;53.638;9.876;2022-11-15T01:30:01;100871.78;;;10.35;69.75
56400;BME280;42298;53.638;9.876;2022-11-15T01:32:26;100852.31;;;10.18;70.00
56400;BME280;42298;53.638;9.876;2022-11-15T01:34:52;100879.41;;;10.38;70.10
56400;BME280;42298;53.638;9.876;2022-11-15T01:37:17;100846.88;;;10.13;70.46
56400;BME280;42298;53.638;9.876;2022-11-15T01:39:42;100847.72;;;10.13;69.88
56400;BME280;42298;53.638;9.876;2022-11-15T01:42:12;100870.94;;;10.34;70.01
56400;BME280;42298;53.638;9.876;2022-11-15T01:44:46;100859.13;;;10.07;70.12
56400;BME280;42298;53.638;9.876;2022-11-15T01:47:19;100854.19;;;10.04;69.83
56400;BME280;42298;53.638;9.876;2022-11-15T01:50:08;100862.97;;;10.06;70.50
56400;BME280;42298;53.638;9.876;2022-11-15T01:52:35;100861.13;;;10.01;70.51
56400;BME280;42298;53.638;9.876;2022-11-15T01:55:23;100830.84;;;9.88;70.14
56400;BME280;42298;53.638;9.876;2022-11-15T01:57:53;100844.28;;;9.89;70.77
56400;BME280;42298;53.638;9.876;2022-11-15T02:00:21;100851.47;;;9.85;69.88
56400;BME280;42298;53.638;9.876;2022-11-15T02:02:47;100855.59;;;9.88;70.02
56400;BME280;42298;53.638;9.876;2022-11-15T02:05:12;100834.50;;;9.83;70.14
56400;BME280;42298;53.638;9.876;2022-11-15T02:07:38;100841.09;;;9.82;69.78
56400;BME280;42298;53.638;9.876;2022-11-15T02:10:18;100827.22;;;9.73;70.17
56400;BME280;42298;53.638;9.876;2022-11-15T02:12:44;100827.53;;;9.72;70.42
56400;BME280;42298;53.638;9.876;2022-11-15T02:15:11;100809.25;;;9.62;70.75
56400;BME280;42298;53.638;9.876;2022-11-15T02:17:58;100835.41;;;9.79;69.99
56400;BME280;42298;53.638;9.876;2022-11-15T02:23:30;100846.81;;;9.86;69.93
56400;BME280;42298;53.638;9.876;2022-11-15T02:26:25;100849.03;;;9.84;69.46
56400;BME280;42298;53.638;9.876;2022-11-15T02:34:35;100842.78;;;9.64;70.13
56400;BME280;42298;53.638;9.876;2022-11-15T02:42:49;100810.22;;;9.39;70.21
56400;BME280;42298;53.638;9.876;2022-11-15T02:45:50;100822.97;;;9.49;70.10
56400;BME280;42298;53.638;9.876;2022-11-15T02:48:17;100802.13;;;9.29;70.31
56400;BME280;42298;53.638;9.876;2022-11-15T02:50:43;100800.81;;;9.27;69.56
56400;BME280;42298;53.638;9.876;2022-11-15T02:53:09;100827.81;;;9.38;69.97
56400;BME280;42298;53.638;9.876;2022-11-15T02:55:36;100812.81;;;9.31;69.35
56400;BME280;42298;53.638;9.876;2022-11-15T02:58:52;100803.69;;;9.35;69.20
56400;BME280;42298;53.638;9.876;2022-11-15T03:06:53;100806.84;;;9.10;69.54
56400;BME280;42298;53.638;9.876;2022-11-15T03:09:33;100813.22;;;9.06;70.29
56400;BME280;42298;53.638;9.876;2022-11-15T03:12:06;100819.47;;;9.11;69.48
56400;BME280;42298;53.638;9.876;2022-11-15T03:14:38;100830.25;;;9.08;70.34
56400;BME280;42298;53.638;9.876;2022-11-15T03:17:25;100809.31;;;8.93;70.50
56400;BME280;42298;53.638;9.876;2022-11-15T03:19:54;100792.38;;;8.86;70.29
56400;BME280;42298;53.638;9.876;2022-11-15T03:22:24;100828.91;;;9.05;70.43
56400;BME280;42298;53.638;9.876;2022-11-15T03:24:54;100804.72;;;8.89;70.11
56400;BME280;42298;53.638;9.876;2022-11-15T03:27:23;100826.47;;;9.04;70.74
56400;BME280;42298;53.638;9.876;2022-11-15T03:29:55;100787.41;;;8.88;70.65
56400;BME280;42298;53.638;9.876;2022-11-15T03:32:25;100828.03;;;9.10;70.79
56400;BME280;42298;53.638;9.876;2022-11-15T03:34:59;100812.03;;;9.12;70.71
56400;BME280;42298;53.638;9.876;2022-11-15T03:38:01;100780.78;;;8.89;70.23
56400;BME280;42298;53.638;9.876;2022-11-15T03:40:36;100812.63;;;9.09;70.57
56400;BME280;42298;53.638;9.876;2022-11-15T03:43:18;100816.44;;;9.13;70.64
56400;BME280;42298;53.638;9.876;2022-11-15T03:46:13;100805.44;;;9.13;70.93
56400;BME280;42298;53.638;9.876;2022-11-15T03:48:43;100812.13;;;9.07;69.89
56400;BME280;42298;53.638;9.876;2022-11-15T03:51:10;100785.78;;;8.87;70.81
56400;BME280;42298;53.638;9.876;2022-11-15T03:53:36;100810.56;;;9.01;70.32
56400;BME280;42298;53.638;9.876;2022-11-15T03:56:01;100791.19;;;8.92;71.32
56400;BME280;42298;53.638;9.876;2022-11-15T03:58:26;100804.50;;;9.04;70.72
56400;BME280;42298;53.638;9.876;2022-11-15T04:00:52;100816.81;;;9.06;70.30
56400;BME280;42298;53.638;9.876;2022-11-15T04:03:17;100807.00;;;9.00;69.94
56400;BME280;42298;53.638;9.876;2022-11-15T04:05:42;100792.06;;;8.88;69.70
56400;BME280;42298;53.638;9.876;2022-11-15T04:08:08;100815.78;;;9.02;70.11
56400;BME280;42298;53.638;9.876;2022-11-15T04:10:33;100805.75;;;8.93;69.44
56400;BME280;42298;53.638;9.876;2022-11-15T04:12:58;100804.41;;;8.90;69.54
56400;BME280;42298;53.638;9.876;2022-11-15T04:15:24;100801.06;;;8.93;69.00
56400;BME280;42298;53.638;9.876;2022-11-15T04:17:51;100811.53;;;9.10;70.41
56400;BME280;42298;53.638;9.876;2022-11-15T04:20:21;100820.28;;;9.12;70.52
56400;BME280;42298;53.638;9.876;2022-11-15T04:23:10;100811.66;;;9.18;70.66
56400;BME280;42298;53.638;9.876;2022-11-15T04:25:55;100811.19;;;9.30;70.81
56400;BME280;42298;53.638;9.876;2022-11-15T04:28:20;100804.69;;;9.26;71.15
56400;BME280;42298;53.638;9.876;2022-11-15T04:30:47;100810.00;;;9.36;70.34
56400;BME280;42298;53.638;9.876;2022-11-15T04:33:12;100810.22;;;9.39;71.19
56400;BME280;42298;53.638;9.876;2022-11-15T04:35:38;100796.19;;;9.41;70.06
56400;BME280;42298;53.638;9.876;2022-11-15T04:38:05;100818.56;;;9.66;70.25
56400;BME280;42298;53.638;9.876;2022-11-15T04:40:31;100793.38;;;9.59;70.19
56400;BME280;42298;53.638;9.876;2022-11-15T04:42:56;100822.13;;;9.81;69.54
56400;BME280;42298;53.638;9.876;2022-11-15T04:45:22;100792.69;;;9.67;70.32
56400;BME280;42298;53.638;9.876;2022-11-15T04:47:47;100815.63;;;9.77;70.98
56400;BME280;42298;53.638;9.876;2022-11-15T04:50:14;100819.91;;;9.83;70.90
56400;BME280;42298;53.638;9.876;2022-11-15T04:52:49;100812.19;;;9.85;71.58
56400;BME280;42298;53.638;9.876;2022-11-15T04:55:15;100816.03;;;9.84;70.95
56400;BME280;42298;53.638;9.876;2022-11-15T04:57:40;100815.44;;;9.87;71.39
56400;BME280;42298;53.638;9.876;2022-11-15T05:00:12;100801.19;;;9.85;71.55
56400;BME280;42298;53.638;9.876;2022-11-15T05:02:38;100819.09;;;9.96;72.08
56400;BME280;42298;53.638;9.876;2022-11-15T05:05:23;100793.00;;;9.80;71.77
56400;BME280;42298;53.638;9.876;2022-11-15T05:07:49;100798.22;;;9.81;71.41
56400;BME280;42298;53.638;9.876;2022-11-15T05:10:14;100814.81;;;9.90;71.49
56400;BME280;42298;53.638;9.876;2022-11-15T05:12:40;100820.75;;;9.97;71.07
56400;BME280;42298;53.638;9.876;2022-11-15T05:15:05;100793.84;;;9.94;71.11
56400;BME280;42298;53.638;9.876;2022-11-15T05:17:31;100771.41;;;9.87;71.12
56400;BME280;42298;53.638;9.876;2022-11-15T05:19:56;100797.72;;;10.06;71.29
56400;BME280;42298;53.638;9.876;2022-11-15T05:22:22;100798.19;;;10.13;71.85
56400;BME280;42298;53.638;9.876;2022-11-15T05:24:47;100784.44;;;10.13;71.44
56400;BME280;42298;53.638;9.876;2022-11-15T05:27:13;100799.91;;;10.09;71.24
56400;BME280;42298;53.638;9.876;2022-11-15T05:29:38;100791.28;;;9.97;71.95
56400;BME280;42298;53.638;9.876;2022-11-15T05:32:05;100796.75;;;10.16;71.67
56400;BME280;42298;53.638;9.876;2022-11-15T05:34:31;100782.66;;;10.04;71.67
56400;BME280;42298;53.638;9.876;2022-11-15T05:36:57;100786.44;;;10.08;72.01
56400;BME280;42298;53.638;9.876;2022-11-15T05:39:22;100784.72;;;10.12;71.79
56400;BME280;42298;53.638;9.876;2022-11-15T05:41:52;100775.34;;;10.13;71.59
56400;BME280;42298;53.638;9.876;2022-11-15T05:44:21;100781.16;;;10.25;71.77
56400;BME280;42298;53.638;9.876;2022-11-15T05:46:49;100791.25;;;10.29;71.81
56400;BME280;42298;53.638;9.876;2022-11-15T05:49:18;100770.06;;;10.16;71.91
56400;BME280;42298;53.638;9.876;2022-11-15T05:51:46;100792.16;;;10.38;71.71
56400;BME280;42298;53.638;9.876;2022-11-15T05:54:14;100785.31;;;10.36;71.60
56400;BME280;42298;53.638;9.876;2022-11-15T05:56:40;100783.38;;;10.36;71.00
56400;BME280;42298;53.638;9.876;2022-11-15T05:59:07;100804.69;;;10.58;70.87
56400;BME280;42298;53.638;9.876;2022-11-15T06:01:33;100792.84;;;10.44;71.52
56400;BME280;42298;53.638;9.876;2022-11-15T06:03:58;100800.19;;;10.62;71.24
56400;BME280;42298;53.638;9.876;2022-11-15T06:06:24;100806.31;;;10.59;71.27
56400;BME280;42298;53.638;9.876;2022-11-15T06:08:49;100774.19;;;10.41;71.30
56400;BME280;42298;53.638;9.876;2022-11-15T06:11:14;100789.88;;;10.54;71.57
56400;BME280;42298;53.638;9.876;2022-11-15T06:13:40;100801.19;;;10.66;71.19
56400;BME280;42298;53.638;9.876;2022-11-15T06:16:05;100810.56;;;10.65;71.33
56400;BME280;42298;53.638;9.876;2022-11-15T06:18:34;100799.25;;;10.66;71.54
56400;BME280;42298;53.638;9.876;2022-11-15T06:21:00;100812.09;;;10.71;71.32
56400;BME280;42298;53.638;9.876;2022-11-15T06:23:26;100796.72;;;10.56;71.49
56400;BME280;42298;53.638;9.876;2022-11-15T06:25:51;100788.94;;;10.58;71.80
56400;BME280;42298;53.638;9.876;2022-11-15T06:28:17;100806.28;;;10.72;71.38
56400;BME280;42298;53.638;9.876;2022-11-15T06:30:43;100808.31;;;10.80;71.66
56400;BME280;42298;53.638;9.876;2022-11-15T06:33:08;100770.50;;;10.59;71.33
56400;BME280;42298;53.638;9.876;2022-11-15T06:35:35;100812.59;;;10.86;71.58
56400;BME280;42298;53.638;9.876;2022-11-15T06:38:06;100808.91;;;10.91;71.41
56400;BME280;42298;53.638;9.876;2022-11-15T06:40:36;100795.03;;;10.82;71.70
56400;BME280;42298;53.638;9.876;2022-11-15T06:43:03;100806.56;;;10.84;72.08
56400;BME280;42298;53.638;9.876;2022-11-15T06:45:28;100823.47;;;10.91;71.62
56400;BME280;42298;53.638;9.876;2022-11-15T06:47:54;100813.59;;;10.90;72.13
56400;BME280;42298;53.638;9.876;2022-11-15T06:50:19;100821.63;;;11.00;71.64
56400;BME280;42298;53.638;9.876;2022-11-15T06:52:44;100789.41;;;10.87;71.58
56400;BME280;42298;53.638;9.876;2022-11-15T06:55:10;100809.84;;;11.08;71.61
56400;BME280;42298;53.638;9.876;2022-11-15T06:57:35;100809.91;;;11.17;71.78
56400;BME280;42298;53.638;9.876;2022-11-15T07:00:03;100796.13;;;11.17;71.27
56400;BME280;42298;53.638;9.876;2022-11-15T07:02:28;100799.09;;;11.20;71.10
56400;BME280;42298;53.638;9.876;2022-11-15T07:04:54;100795.97;;;11.13;71.40
56400;BME280;42298;53.638;9.876;2022-11-15T07:07:19;100805.59;;;11.24;71.31
56400;BME280;42298;53.638;9.876;2022-11-15T07:09:44;100817.81;;;11.32;71.03
56400;BME280;42298;53.638;9.876;2022-11-15T07:12:10;100839.47;;;11.38;71.10
56400;BME280;42298;53.638;9.876;2022-11-15T07:14:35;100824.47;;;11.31;71.09
56400;BME280;42298;53.638;9.876;2022-11-15T07:17:03;100833.00;;;11.43;71.13
56400;BME280;42298;53.638;9.876;2022-11-15T07:19:29;100847.47;;;11.48;70.86
56400;BME280;42298;53.638;9.876;2022-11-15T07:21:55;100836.38;;;11.40;71.07
56400;BME280;42298;53.638;9.876;2022-11-15T07:24:20;100845.03;;;11.47;71.21
56400;BME280;42298;53.638;9.876;2022-11-15T07:26:45;100827.97;;;11.45;70.90
56400;BME280;42298;53.638;9.876;2022-11-15T07:29:11;100825.69;;;11.38;71.07
56400;BME280;42298;53.638;9.876;2022-11-15T07:31:36;100839.88;;;11.54;71.15
56400;BME280;42298;53.638;9.876;2022-11-15T07:34:01;100843.16;;;11.56;71.04
56400;BME280;42298;53.638;9.876;2022-11-15T07:36:27;100837.75;;;11.51;70.60
56400;BME280;42298;53.638;9.876;2022-11-15T07:38:52;100812.56;;;11.44;70.81
56400;BME280;42298;53.638;9.876;2022-11-15T07:41:17;100826.25;;;11.49;71.24
56400;BME280;42298;53.638;9.876;2022-11-15T07:43:43;100836.94;;;11.64;70.91
56400;BME280;42298;53.638;9.876;2022-11-15T07:46:08;100817.69;;;11.59;70.37
56400;BME280;42298;53.638;9.876;2022-11-15T07:48:35;100830.28;;;11.65;70.39
56400;BME280;42298;53.638;9.876;2022-11-15T07:51:01;100845.56;;;11.71;70.54
56400;BME280;42298;53.638;9.876;2022-11-15T07:53:26;100820.97;;;11.61;70.37
56400;BME280;42298;53.638;9.876;2022-11-15T07:55:52;100807.19;;;11.61;70.49
56400;BME280;42298;53.638;9.876;2022-11-15T07:58:19;100840.25;;;11.75;70.68
56400;BME280;42298;53.638;9.876;2022-11-15T08:00:44;100825.25;;;11.67;70.95
56400;BME280;42298;53.638;9.876;2022-11-15T08:03:15;100836.69;;;11.83;70.45
56400;BME280;42298;53.638;9.876;2022-11-15T08:05:41;100836.06;;;11.86;70.48
56400;BME280;42298;53.638;9.876;2022-11-15T08:08:08;100815.09;;;11.76;70.25
56400;BME280;42298;53.638;9.876;2022-11-15T08:10:35;100826.50;;;11.83;70.39
56400;BME280;42298;53.638;9.876;2022-11-15T08:13:02;100827.16;;;11.89;70.50
56400;BME280;42298;53.638;9.876;2022-11-15T08:15:29;100813.63;;;11.79;70.14
56400;BME280;42298;53.638;9.876;2022-11-15T08:17:56;100828.50;;;11.91;70.03
56400;BME280;42298;53.638;9.876;2022-11-15T08:20:22;100803.78;;;11.86;70.10
56400;BME280;42298;53.638;9.876;2022-11-15T08:22:47;100840.72;;;11.99;69.35
56400;BME280;42298;53.638;9.876;2022-11-15T08:25:12;100802.41;;;11.75;69.99
56400;BME280;42298;53.638;9.876;2022-11-15T08:27:38;100828.84;;;11.98;69.69
56400;BME280;42298;53.638;9.876;2022-11-15T08:30:03;100821.88;;;12.01;69.53
56400;BME280;42298;53.638;9.876;2022-11-15T08:32:30;100836.22;;;12.11;70.02
56400;BME280;42298;53.638;9.876;2022-11-15T08:34:56;100828.25;;;12.10;69.72
56400;BME280;42298;53.638;9.876;2022-11-15T08:37:22;100836.28;;;12.20;69.79
56400;BME280;42298;53.638;9.876;2022-11-15T08:39:48;100813.66;;;12.09;69.23
56400;BME280;42298;53.638;9.876;2022-11-15T08:42:13;100815.13;;;12.15;69.12
56400;BME280;42298;53.638;9.876;2022-11-15T08:44:40;100827.03;;;12.24;69.04
56400;BME280;42298;53.638;9.876;2022-11-15T08:47:05;100823.41;;;12.15;69.13
56400;BME280;42298;53.638;9.876;2022-11-15T08:49:30;100816.09;;;12.11;69.19
56400;BME280;42298;53.638;9.876;2022-11-15T08:51:56;100818.69;;;12.16;69.06
56400;BME280;42298;53.638;9.876;2022-11-15T08:54:21;100839.47;;;12.13;68.96
56400;BME280;42298;53.638;9.876;2022-11-15T08:56:46;100836.09;;;12.16;69.20
56400;BME280;42298;53.638;9.876;2022-11-15T08:59:13;100826.97;;;12.16;69.72
56400;BME280;42298;53.638;9.876;2022-11-15T09:01:39;100838.22;;;12.28;68.82
56400;BME280;42298;53.638;9.876;2022-11-15T09:04:04;100838.91;;;12.33;69.25
56400;BME280;42298;53.638;9.876;2022-11-15T09:06:30;100824.22;;;12.16;69.06
56400;BME280;42298;53.638;9.876;2022-11-15T09:08:56;100841.31;;;12.26;68.78
56400;BME280;42298;53.638;9.876;2022-11-15T09:11:21;100822.59;;;12.15;68.87
56400;BME280;42298;53.638;9.876;2022-11-15T09:13:48;100844.94;;;12.35;68.79
56400;BME280;42298;53.638;9.876;2022-11-15T09:16:14;100835.66;;;12.31;68.46
56400;BME280;42298;53.638;9.876;2022-11-15T09:18:40;100839.41;;;12.35;68.45
56400;BME280;42298;53.638;9.876;2022-11-15T09:21:05;100834.69;;;12.27;69.17
56400;BME280;42298;53.638;9.876;2022-11-15T09:23:31;100845.44;;;12.37;68.77
56400;BME280;42298;53.638;9.876;2022-11-15T09:26:00;100842.03;;;12.40;69.01
56400;BME280;42298;53.638;9.876;2022-11-15T09:28:27;100807.16;;;12.14;68.60
56400;BME280;42298;53.638;9.876;2022-11-15T09:30:56;100839.09;;;12.45;68.95
56400;BME280;42298;53.638;9.876;2022-11-15T09:33:22;100837.03;;;12.51;68.56
56400;BME280;42298;53.638;9.876;2022-11-15T09:35:47;100827.91;;;12.42;68.93
56400;BME280;42298;53.638;9.876;2022-11-15T09:38:13;100838.78;;;12.47;68.32
56400;BME280;42298;53.638;9.876;2022-11-15T09:40:38;100845.16;;;12.56;68.68
56400;BME280;42298;53.638;9.876;2022-11-15T09:43:26;100842.13;;;12.74;68.30
56400;BME280;42298;53.638;9.876;2022-11-15T09:46:13;100838.72;;;12.77;67.31
56400;BME280;42298;53.638;9.876;2022-11-15T09:48:57;100820.66;;;12.71;67.94
56400;BME280;42298;53.638;9.876;2022-11-15T09:51:34;100842.19;;;12.91;68.15
56400;BME280;42298;53.638;9.876;2022-11-15T09:56:56;100834.75;;;13.00;67.14
56400;BME280;42298;53.638;9.876;2022-11-15T09:59:50;100853.63;;;13.15;67.02
56400;BME280;42298;53.638;9.876;2022-11-15T10:05:22;100824.50;;;13.26;67.30
56400;BME280;42298;53.638;9.876;2022-11-15T10:10:42;100849.41;;;13.43;66.79
56400;BME280;42298;53.638;9.876;2022-11-15T10:13:16;100830.53;;;13.28;67.27
56400;BME280;42298;53.638;9.876;2022-11-15T10:15:44;100834.44;;;13.27;66.97
56400;BME280;42298;53.638;9.876;2022-11-15T10:18:19;100813.63;;;13.21;66.90
56400;BME280;42298;53.638;9.876;2022-11-15T10:20:59;100828.41;;;13.34;67.32
56400;BME280;42298;53.638;9.876;2022-11-15T10:23:26;100820.25;;;13.20;67.05
56400;BME280;42298;53.638;9.876;2022-11-15T10:25:57;100806.63;;;13.15;67.66
56400;BME280;42298;53.638;9.876;2022-11-15T10:28:30;100818.47;;;13.41;67.12
56400;BME280;42298;53.638;9.876;2022-11-15T10:30:58;100797.00;;;13.30;67.34
56400;BME280;42298;53.638;9.876;2022-11-15T10:33:30;100806.44;;;13.37;67.07
56400;BME280;42298;53.638;9.876;2022-11-15T10:47:03;100811.94;;;13.63;66.72
56400;BME280;42298;53.638;9.876;2022-11-15T10:49:30;100801.19;;;13.62;66.90
56400;BME280;42298;53.638;9.876;2022-11-15T10:54:43;100808.16;;;13.76;66.69
56400;BME280;42298;53.638;9.876;2022-11-15T10:57:24;100786.38;;;13.66;66.34
56400;BME280;42298;53.638;9.876;2022-11-15T10:59:56;100798.22;;;13.84;67.03
56400;BME280;42298;53.638;9.876;2022-11-15T11:02:37;100801.28;;;13.99;66.44
56400;BME280;42298;53.638;9.876;2022-11-15T11:05:06;100776.84;;;13.93;66.25
56400;BME280;42298;53.638;9.876;2022-11-15T11:07:58;100796.84;;;14.07;65.82
56400;BME280;42298;53.638;9.876;2022-11-15T11:10:24;100780.25;;;13.98;66.21
56400;BME280;42298;53.638;9.876;2022-11-15T11:12:49;100763.97;;;13.97;66.02
56400;BME280;42298;53.638;9.876;2022-11-15T11:15:15;100776.47;;;14.11;65.97
56400;BME280;42298;53.638;9.876;2022-11-15T11:18:17;100774.69;;;14.07;65.81
56400;BME280;42298;53.638;9.876;2022-11-15T11:20:45;100778.59;;;14.06;66.04
56400;BME280;42298;53.638;9.876;2022-11-15T11:23:38;100774.47;;;14.20;66.14
56400;BME280;42298;53.638;9.876;2022-11-15T11:28:54;100770.88;;;14.20;66.03
56400;BME280;42298;53.638;9.876;2022-11-15T11:31:44;100768.41;;;14.27;65.78
56400;BME280;42298;53.638;9.876;2022-11-15T11:34:33;100769.41;;;14.31;65.96
56400;BME280;42298;53.638;9.876;2022-11-15T11:40:23;100755.94;;;14.41;66.13
56400;BME280;42298;53.638;9.876;2022-11-15T11:42:58;100747.84;;;14.36;65.75
56400;BME280;42298;53.638;9.876;2022-11-15T11:48:13;100755.16;;;14.41;66.17
56400;BME280;42298;53.638;9.876;2022-11-15T11:50:42;100720.53;;;14.26;65.50
56400;BME280;42298;53.638;9.876;2022-11-15T11:53:15;100756.75;;;14.42;65.87
56400;BME280;42298;53.638;9.876;2022-11-15T11:55:46;100730.13;;;14.29;66.44
56400;BME280;42298;53.638;9.876;2022-11-15T11:58:23;100747.59;;;14.50;66.09
56400;BME280;42298;53.638;9.876;2022-11-15T12:00:56;100743.34;;;14.52;65.33
56400;BME280;42298;53.638;9.876;2022-11-15T12:03:40;100741.84;;;14.55;65.77
56400;BME280;42298;53.638;9.876;2022-11-15T12:09:20;100711.50;;;14.38;65.38
56400;BME280;42298;53.638;9.876;2022-11-15T12:16:59;100718.22;;;14.57;65.17
56400;BME280;42298;53.638;9.876;2022-11-15T12:19:25;100708.31;;;14.48;65.10
56400;BME280;42298;53.638;9.876;2022-11-15T12:22:00;100713.19;;;14.51;65.03
56400;BME280;42298;53.638;9.876;2022-11-15T12:24:48;100727.81;;;14.80;65.30
56400;BME280;42298;53.638;9.876;2022-11-15T12:30:42;100713.88;;;14.89;64.46
56400;BME280;42298;53.638;9.876;2022-11-15T12:33:32;100688.72;;;14.73;64.72
56400;BME280;42298;53.638;9.876;2022-11-15T12:36:05;100705.97;;;14.99;64.55
56400;BME280;42298;53.638;9.876;2022-11-15T12:41:17;100679.19;;;14.83;64.57
56400;BME280;42298;53.638;9.876;2022-11-15T12:43:43;100693.22;;;14.98;64.65
56400;BME280;42298;53.638;9.876;2022-11-15T13:17:38;100668.31;;;15.43;64.22
56400;BME280;42298;53.638;9.876;2022-11-15T13:27:47;100660.50;;;15.57;63.50
56400;BME280;42298;53.638;9.876;2022-11-15T13:30:21;100646.38;;;15.50;63.48
56400;BME280;42298;53.638;9.876;2022-11-15T13:32:47;100627.03;;;15.42;63.85
56400;BME280;42298;53.638;9.876;2022-11-15T13:35:25;100639.44;;;15.44;63.40
56400;BME280;42298;53.638;9.876;2022-11-15T13:37:53;100653.06;;;15.49;63.67
56400;BME280;42298;53.638;9.876;2022-11-15T13:40:23;100655.63;;;15.54;63.78
56400;BME280;42298;53.638;9.876;2022-11-15T13:42:49;100646.75;;;15.61;63.53
56400;BME280;42298;53.638;9.876;2022-11-15T13:45:19;100617.22;;;15.44;63.52
56400;BME280;42298;53.638;9.876;2022-11-15T13:47:51;100604.97;;;15.45;63.70
56400;BME280;42298;53.638;9.876;2022-11-15T13:50:16;100617.66;;;15.46;64.13
56400;BME280;42298;53.638;9.876;2022-11-15T13:52:45;100619.06;;;15.52;63.87
56400;BME280;42298;53.638;9.876;2022-11-15T13:55:17;100636.56;;;15.65;64.15
56400;BME280;42298;53.638;9.876;2022-11-15T13:57:49;100632.50;;;15.62;63.84
56400;BME280;42298;53.638;9.876;2022-11-15T14:05:42;100605.53;;;15.51;63.90
56400;BME280;42298;53.638;9.876;2022-11-15T14:10:45;100639.22;;;15.73;63.02
56400;BME280;42298;53.638;9.876;2022-11-15T14:13:28;100613.88;;;15.63;63.67
56400;BME280;42298;53.638;9.876;2022-11-15T14:15:53;100640.16;;;15.65;63.88
56400;BME280;42298;53.638;9.876;2022-11-15T14:18:42;100633.56;;;15.58;63.95
56400;BME280;42298;53.638;9.876;2022-11-15T14:21:08;100625.78;;;15.51;64.15
56400;BME280;42298;53.638;9.876;2022-11-15T14:23:34;100616.97;;;15.49;63.88
56400;BME280;42298;53.638;9.876;2022-11-15T14:25:59;100582.63;;;15.29;64.34
56400;BME280;42298;53.638;9.876;2022-11-15T14:30:54;100596.56;;;15.21;64.55
56400;BME280;42298;53.638;9.876;2022-11-15T14:33:29;100614.88;;;15.34;64.41
56400;BME280;42298;53.638;9.876;2022-11-15T14:35:57;100621.13;;;15.43;64.80
56400;BME280;42298;53.638;9.876;2022-11-15T14:38:24;100611.44;;;15.37;64.50
56400;BME280;42298;53.638;9.876;2022-11-15T14:40:49;100611.53;;;15.41;64.32
56400;BME280;42298;53.638;9.876;2022-11-15T14:43:15;100585.47;;;15.21;64.53
56400;BME280;42298;53.638;9.876;2022-11-15T14:45:40;100620.56;;;15.38;64.82
56400;BME280;42298;53.638;9.876;2022-11-15T14:48:06;100631.78;;;15.41;64.75
56400;BME280;42298;53.638;9.876;2022-11-15T14:50:33;100613.94;;;15.30;64.70
56400;BME280;42298;53.638;9.876;2022-11-15T14:53:02;100618.91;;;15.37;64.58
56400;BME280;42298;53.638;9.876;2022-11-15T14:55:30;100601.66;;;15.19;65.15
56400;BME280;42298;53.638;9.876;2022-11-15T14:57:57;100620.63;;;15.29;65.07